This is the latest recevied weather packets stored in our database for station/object SP9KB-13. If no packets are shown the sender has not sent any weather packets the latest 10 day(s).
| Time | Temp. | Humidity | Pressure | Rain* | Wind** | Luminosity | Snow |
|---|---|---|---|---|---|---|---|
| 1777700219 | 8.33° C | 75% | 1006.3 hPa | 0 mm | - | - | - |
| 1777699918 | 7.78° C | 78% | 1006.4 hPa | 0 mm | - | - | - |
| 1777699618 | 7.78° C | 79% | 1006.5 hPa | 0 mm | - | - | - |
| 1777699317 | 7.78° C | 77% | 1006.4 hPa | 0 mm | - | - | - |
| 1777699017 | 7.22° C | 77% | 1006.5 hPa | 0 mm | - | - | - |
| 1777698716 | 6.11° C | 83% | 1006.6 hPa | 0 mm | - | - | - |
| 1777698416 | 6.67° C | 81% | 1006.5 hPa | 0 mm | - | - | - |
| 1777698115 | 6.11° C | 82% | 1006.5 hPa | 0 mm | - | - | - |
| 1777697815 | 5.56° C | 85% | 1006.3 hPa | 0 mm | - | - | - |
| 1777697514 | 6.67° C | 80% | 1006.4 hPa | 0 mm | - | - | - |
| 1777697213 | 7.22° C | 75% | 1006.4 hPa | 0 mm | - | - | - |
| 1777696913 | 6.11° C | 79% | 1006.3 hPa | 0 mm | - | - | - |
| 1777696612 | 5.56° C | 81% | 1006.4 hPa | 0 mm | - | - | - |
| 1777696312 | 4.44° C | 89% | 1006.5 hPa | 0 mm | - | - | - |
| 1777696011 | 3.33° C | 93% | 1006.3 hPa | 0 mm | - | - | - |
| 1777695711 | 3.33° C | 96% | 1006.4 hPa | 0 mm | - | - | - |
| 1777695410 | 2.22° C | 98% | 1006.5 hPa | 0 mm | - | - | - |
| 1777695110 | 1.11° C | 98% | 1006.2 hPa | 0 mm | - | - | - |
| 1777694809 | 0° C | 98% | 1006.2 hPa | 0 mm | - | - | - |
| 1777694509 | 0° C | 98% | 1006.1 hPa | 0 mm | - | - | - |
| 1777694208 | 0° C | 98% | 1006.2 hPa | 0 mm | - | - | - |
| 1777693908 | -0.56° C | 98% | 1006.2 hPa | 0 mm | - | - | - |
| 1777693607 | -0.56° C | 98% | 1006.2 hPa | 0 mm | - | - | - |
| 1777693307 | 0° C | 98% | 1006.4 hPa | 0 mm | - | - | - |
| 1777693006 | 0° C | 98% | 1006.2 hPa | 0 mm | - | - | - |
* Rain latest hour (hover to see other rain measurements)
** Current wind speed in m/s (hover to see current wind gust speed)